createdAt,value
2018-04-26T08:11:09.997Z,1.23
2018-04-26T08:13:36.500Z,1.48
2018-04-26T08:16:03.465Z,1.50
2018-04-26T08:18:29.896Z,1.48
2018-04-26T08:20:56.956Z,1.70
2018-04-26T08:23:23.387Z,2.00
2018-04-26T08:25:50.269Z,1.42
2018-04-26T08:28:17.002Z,1.60
2018-04-26T08:30:43.472Z,1.55
2018-04-26T08:33:10.117Z,1.80
2018-04-26T08:35:37.726Z,2.00
2018-04-26T08:38:04.334Z,2.10
2018-04-26T08:40:30.843Z,1.60
2018-04-26T08:42:57.320Z,2.30
2018-04-26T08:45:24.545Z,2.40
2018-04-26T08:47:51.208Z,1.60
2018-04-26T08:50:18.568Z,2.47
2018-04-26T08:52:46.052Z,1.67
2018-04-26T08:55:12.637Z,2.05
2018-04-26T08:57:39.494Z,2.20
2018-04-26T09:00:06.006Z,1.80
2018-04-26T09:02:33.284Z,2.40
2018-04-26T09:04:59.879Z,2.00
2018-04-26T09:07:26.505Z,2.05
2018-04-26T09:09:52.937Z,2.40
2018-04-26T09:12:19.696Z,1.60
2018-04-26T09:14:46.220Z,1.80
2018-04-26T09:17:12.816Z,1.90
2018-04-26T09:19:40.254Z,2.08
2018-04-26T09:22:07.708Z,2.00
2018-04-26T09:24:34.516Z,1.77
2018-04-26T09:27:01.354Z,2.83
2018-04-26T09:29:28.880Z,1.67
2018-04-26T09:31:55.715Z,1.98
2018-04-26T09:34:22.368Z,2.00
2018-04-26T09:36:48.925Z,1.67
2018-04-26T09:39:15.589Z,1.80
2018-04-26T09:41:42.454Z,1.50
2018-04-26T09:44:09.344Z,1.50
2018-04-26T09:46:35.934Z,1.40
2018-04-26T09:49:03.414Z,1.50
2018-04-26T09:51:29.903Z,1.77
2018-04-26T09:53:56.360Z,1.55
2018-04-26T09:56:23.584Z,1.92
2018-04-26T09:58:50.055Z,1.80
2018-04-26T10:01:19.671Z,1.80
2018-04-26T10:03:46.285Z,1.80
2018-04-26T10:06:30.595Z,2.15
2018-04-26T10:08:57.236Z,1.75
2018-04-26T10:11:23.778Z,1.90
2018-04-26T10:13:50.394Z,1.62
2018-04-26T10:16:17.770Z,1.60
2018-04-26T10:18:44.349Z,1.80
2018-04-26T10:21:11.304Z,1.70
2018-04-26T10:23:37.779Z,1.80
2018-04-26T10:26:04.316Z,1.90
2018-04-26T10:28:31.195Z,1.50
2018-04-26T10:30:58.722Z,1.30
2018-04-26T10:33:26.504Z,1.20
2018-04-26T10:35:54.185Z,1.00
2018-04-26T10:38:20.666Z,1.20
2018-04-26T10:40:47.140Z,1.40
2018-04-26T10:43:13.832Z,1.40
2018-04-26T10:45:41.710Z,1.50
2018-04-26T10:48:08.171Z,1.62
2018-04-26T10:50:34.706Z,1.52
2018-04-26T10:53:01.462Z,1.77
2018-04-26T10:55:28.071Z,1.40
2018-04-26T10:57:54.608Z,1.87
2018-04-26T11:00:21.409Z,1.67
2018-04-26T11:02:48.663Z,1.60
2018-04-26T11:05:15.446Z,1.80
2018-04-26T11:07:42.271Z,1.73
2018-04-26T11:10:09.072Z,1.52
2018-04-26T11:12:35.596Z,1.50
2018-04-26T11:15:02.410Z,1.70
2018-04-26T11:17:30.616Z,1.50
2018-04-26T11:19:57.866Z,1.33
2018-04-26T11:22:24.399Z,1.50
2018-04-26T11:24:51.767Z,1.40
2018-04-26T11:27:18.421Z,1.70
2018-04-26T11:29:45.931Z,1.60
2018-04-26T11:32:13.201Z,1.60
2018-04-26T11:34:39.929Z,1.50
2018-04-26T11:37:07.175Z,1.40
2018-04-26T11:39:33.610Z,1.60
2018-04-26T11:42:01.049Z,1.62
2018-04-26T11:44:27.897Z,2.03
2018-04-26T11:46:54.574Z,1.80
2018-04-26T11:49:21.066Z,1.60
2018-04-26T11:51:48.280Z,1.70
2018-04-26T11:54:15.661Z,1.80
2018-04-26T11:56:44.337Z,1.60
2018-04-26T11:59:11.807Z,1.70
2018-04-26T12:01:39.359Z,1.73
2018-04-26T12:04:05.888Z,1.50
2018-04-26T12:06:33.456Z,1.90
2018-04-26T12:09:00.101Z,1.50
2018-04-26T12:11:26.807Z,1.55
2018-04-26T12:13:53.397Z,1.67
2018-04-26T12:16:20.179Z,1.80
2018-04-26T12:18:46.620Z,1.80
2018-04-26T12:21:13.262Z,1.75
2018-04-26T12:23:39.831Z,1.60
2018-04-26T12:26:06.267Z,1.80
2018-04-26T12:28:32.991Z,1.50
2018-04-26T12:31:00.527Z,2.30
2018-04-26T12:33:27.891Z,1.80
2018-04-26T12:35:54.540Z,1.60
2018-04-26T12:38:21.020Z,1.40
2018-04-26T12:40:48.515Z,1.30
2018-04-26T12:43:14.956Z,1.60
2018-04-26T12:45:41.525Z,1.67
2018-04-26T12:48:09.217Z,1.80
2018-04-26T12:50:35.780Z,1.70
2018-04-26T12:53:03.176Z,1.80
2018-04-26T12:55:29.978Z,1.60
2018-04-26T12:57:56.642Z,1.62
2018-04-26T13:00:23.147Z,1.70
2018-04-26T13:02:50.021Z,1.55
2018-04-26T13:05:16.520Z,1.70
2018-04-26T13:07:43.316Z,1.70
2018-04-26T13:10:09.720Z,1.50
2018-04-26T13:12:37.260Z,1.70
2018-04-26T13:15:03.876Z,1.50
2018-04-26T13:17:30.429Z,1.65
2018-04-26T13:19:56.906Z,1.75
2018-04-26T13:22:23.447Z,1.60
2018-04-26T13:24:50.454Z,1.70
2018-04-26T13:27:16.875Z,1.80
2018-04-26T13:29:43.422Z,1.60
2018-04-26T13:32:09.992Z,1.50
2018-04-26T13:34:37.331Z,1.55
2018-04-26T13:37:03.924Z,2.50
2018-04-26T13:39:30.585Z,2.90
2018-04-26T13:41:57.287Z,3.40
2018-04-26T13:44:24.520Z,3.33
2018-04-26T13:46:51.459Z,3.33
2018-04-26T13:49:17.944Z,4.10
2018-04-26T13:51:44.484Z,3.90
2018-04-26T13:54:11.062Z,3.30
2018-04-26T13:56:38.311Z,3.70
2018-04-26T13:59:05.033Z,3.70
2018-04-26T14:01:31.765Z,3.50
2018-04-26T14:03:58.316Z,3.90
2018-04-26T14:06:25.524Z,3.53
2018-04-26T14:08:52.154Z,3.92
2018-04-26T14:11:19.272Z,3.43
2018-04-26T14:13:45.777Z,3.20
2018-04-26T14:16:12.349Z,3.60
2018-04-26T14:18:38.867Z,4.00
2018-04-26T14:21:06.513Z,4.10
2018-04-26T14:23:33.328Z,2.87
2018-04-26T14:26:01.155Z,2.30
2018-04-26T14:28:27.752Z,2.40
2018-04-26T14:30:54.616Z,2.10
2018-04-26T14:33:23.259Z,1.85
2018-04-26T14:35:50.221Z,1.87
2018-04-26T14:38:17.091Z,1.85
2018-04-26T14:40:43.675Z,2.07
2018-04-26T14:43:10.335Z,2.40
2018-04-26T14:45:37.112Z,2.08
2018-04-26T14:48:03.626Z,2.20
2018-04-26T14:50:31.179Z,2.50
2018-04-26T14:52:57.772Z,3.10
2018-04-26T14:55:24.592Z,5.32
2018-04-26T14:57:51.992Z,2.90
2018-04-26T15:00:18.692Z,3.50
2018-04-26T15:02:45.904Z,2.70
2018-04-26T15:05:13.134Z,3.10
2018-04-26T15:07:39.608Z,2.67
2018-04-26T15:10:06.096Z,3.00
2018-04-26T15:12:32.601Z,2.65
2018-04-26T15:15:00.442Z,2.90
2018-04-26T15:17:28.677Z,3.05
2018-04-26T15:19:56.234Z,2.80
2018-04-26T15:22:23.446Z,2.70
2018-04-26T15:24:50.691Z,2.42
2018-04-26T15:27:17.881Z,2.50
2018-04-26T15:29:44.344Z,2.50
2018-04-26T15:32:10.896Z,2.30
2018-04-26T15:34:37.941Z,2.20
2018-04-26T15:37:04.461Z,2.42
2018-04-26T15:39:31.088Z,2.40
2018-04-26T15:41:58.023Z,2.30
2018-04-26T15:44:24.642Z,2.10
2018-04-26T15:46:51.114Z,2.75
2018-04-26T15:49:17.925Z,2.35
2018-04-26T15:51:44.862Z,2.20
2018-04-26T15:54:23.930Z,2.00
2018-04-26T15:57:03.787Z,2.00
2018-04-26T15:59:42.551Z,2.20
2018-04-26T16:02:36.191Z,2.15
2018-04-26T16:05:21.028Z,2.30
2018-04-26T16:08:06.012Z,2.00
2018-04-26T16:11:05.920Z,2.50
2018-04-26T16:13:50.879Z,2.40
2018-04-26T16:16:35.843Z,2.50
2018-04-26T16:19:28.464Z,2.60
2018-04-26T16:22:14.473Z,2.50
2018-04-26T16:24:54.433Z,2.58
2018-04-26T16:27:39.376Z,2.40
2018-04-26T16:30:18.902Z,3.30
2018-04-26T16:33:04.538Z,9.85
2018-04-26T16:35:43.671Z,6.97
2018-04-26T16:38:22.298Z,6.45
2018-04-26T16:40:49.756Z,2.90
2018-04-26T16:43:19.568Z,2.70
2018-04-26T16:45:46.535Z,2.45
2018-04-26T16:48:13.212Z,3.10
2018-04-26T16:50:40.336Z,2.40
2018-04-26T16:53:07.880Z,2.90
2018-04-26T16:55:35.976Z,2.90
2018-04-26T16:58:04.989Z,3.00
2018-04-26T17:00:32.800Z,2.90
2018-04-26T17:02:59.890Z,3.10
2018-04-26T17:05:27.175Z,3.20
2018-04-26T17:07:57.872Z,3.00
2018-04-26T17:10:25.829Z,3.00
2018-04-26T17:12:52.372Z,3.40
2018-04-26T17:15:19.402Z,2.85
2018-04-26T17:17:46.202Z,2.70
2018-04-26T17:20:12.707Z,2.70
2018-04-26T17:22:39.587Z,2.40
2018-04-26T17:25:07.089Z,2.55
2018-04-26T17:27:36.782Z,2.60
2018-04-26T17:30:03.678Z,2.65
2018-04-26T17:32:32.064Z,2.12
2018-04-26T17:34:59.220Z,2.70
2018-04-26T17:37:26.472Z,2.30
2018-04-26T17:39:53.211Z,2.45
2018-04-26T17:42:20.362Z,1.90
2018-04-26T17:44:47.279Z,2.10
2018-04-26T17:47:13.856Z,1.90
2018-04-26T17:49:40.411Z,2.00
2018-04-26T17:52:06.967Z,2.40
2018-04-26T17:54:33.623Z,2.08
2018-04-26T17:57:00.286Z,6.72
2018-04-26T17:59:27.566Z,2.00
2018-04-26T18:01:54.019Z,2.10
2018-04-26T18:04:21.498Z,2.90
2018-04-26T18:06:48.921Z,2.80
2018-04-26T18:09:16.151Z,2.60
2018-04-26T18:11:42.814Z,6.90
2018-04-26T18:14:09.283Z,2.50
2018-04-26T18:16:35.825Z,2.80
2018-04-26T18:19:03.340Z,2.30
2018-04-26T18:21:29.770Z,2.30
2018-04-26T18:23:56.525Z,2.70
2018-04-26T18:26:23.186Z,2.70
2018-04-26T18:28:50.665Z,11.52
2018-04-26T18:31:18.410Z,26.58
2018-04-26T18:33:45.899Z,13.45
2018-04-26T18:36:13.307Z,10.88
2018-04-26T18:38:40.171Z,7.43
2018-04-26T18:41:07.002Z,5.35
2018-04-26T18:43:33.613Z,3.50
2018-04-26T18:46:01.073Z,4.20
2018-04-26T18:48:28.083Z,3.30
2018-04-26T18:50:57.264Z,3.00
2018-04-26T18:53:24.480Z,2.75
2018-04-26T18:55:52.217Z,2.90
2018-04-26T18:58:18.717Z,2.55
2018-04-26T19:00:45.439Z,2.90
2018-04-26T19:03:13.532Z,3.00
2018-04-26T19:05:40.847Z,2.80
2018-04-26T19:08:07.655Z,5.50
2018-04-26T19:10:37.054Z,4.55
2018-04-26T19:13:03.994Z,5.00
2018-04-26T19:15:30.470Z,4.80
2018-04-26T19:17:58.101Z,4.70
2018-04-26T19:20:24.781Z,4.65
2018-04-26T19:22:51.277Z,5.05
2018-04-26T19:25:17.835Z,5.20
2018-04-26T19:27:45.698Z,5.30
2018-04-26T19:30:15.904Z,6.35
2018-04-26T19:32:42.667Z,9.70
2018-04-26T19:35:09.635Z,11.75
2018-04-26T19:37:36.067Z,10.55
2018-04-26T19:40:03.439Z,10.93
2018-04-26T19:42:30.740Z,10.85
2018-04-26T19:44:57.756Z,11.05
2018-04-26T19:47:24.548Z,10.43
2018-04-26T19:49:52.476Z,8.88
2018-04-26T19:52:19.023Z,7.20
2018-04-26T19:54:45.490Z,7.20
2018-04-26T19:57:12.958Z,6.30
2018-04-26T19:59:39.771Z,6.18
2018-04-26T20:02:06.378Z,6.40
2018-04-26T20:04:32.946Z,6.72
2018-04-26T20:07:00.212Z,5.93
2018-04-26T20:09:26.736Z,5.97
2018-04-26T20:11:53.535Z,5.72
2018-04-26T20:14:20.452Z,5.50
2018-04-26T20:16:46.957Z,5.20
2018-04-26T20:19:14.322Z,4.32
2018-04-26T20:21:40.842Z,4.90
2018-04-26T20:24:08.106Z,4.90
2018-04-26T20:26:34.947Z,5.62
2018-04-26T20:29:01.739Z,5.82
2018-04-26T20:31:28.200Z,6.07
2018-04-26T20:33:54.944Z,6.05
2018-04-26T20:36:21.573Z,6.82
2018-04-26T20:38:48.676Z,8.40
2018-04-26T20:41:15.203Z,5.72
2018-04-26T20:43:42.337Z,5.20
2018-04-26T20:46:08.790Z,4.60
2018-04-26T20:48:40.305Z,4.70
2018-04-26T20:51:06.768Z,4.80
2018-04-26T20:53:33.311Z,4.80
2018-04-26T20:56:00.522Z,7.30
2018-04-26T20:58:26.952Z,7.60
2018-04-26T21:00:53.499Z,6.23
2018-04-26T21:03:20.772Z,5.90
2018-04-26T21:05:48.032Z,6.17
2018-04-26T21:08:14.489Z,5.30
2018-04-26T21:10:41.674Z,4.90
2018-04-26T21:13:08.868Z,4.62
2018-04-26T21:15:35.407Z,5.18
2018-04-26T21:18:02.683Z,5.85
2018-04-26T21:20:29.869Z,7.55
2018-04-26T21:22:56.231Z,11.15
2018-04-26T21:25:22.653Z,8.75
2018-04-26T21:27:49.068Z,6.15
2018-04-26T21:30:15.513Z,5.10
2018-04-26T21:32:41.936Z,4.67
2018-04-26T21:35:08.374Z,4.70
2018-04-26T21:37:35.552Z,5.00
2018-04-26T21:40:02.713Z,4.80
2018-04-26T21:42:29.126Z,5.10
2018-04-26T21:44:55.599Z,5.15
2018-04-26T21:47:22.034Z,5.20
2018-04-26T21:49:54.547Z,5.20
2018-04-26T21:52:27.153Z,4.80
2018-04-26T21:54:59.556Z,4.80
2018-04-26T21:57:32.679Z,5.07
2018-04-26T22:00:05.096Z,5.15
2018-04-26T22:02:31.466Z,4.90
2018-04-26T22:05:14.596Z,5.18
2018-04-26T22:07:41.063Z,4.70
2018-04-26T22:10:07.531Z,5.65
2018-04-26T22:12:33.999Z,4.82
2018-04-26T22:15:01.207Z,5.00
2018-04-26T22:17:27.661Z,4.93
2018-04-26T22:19:54.277Z,5.20
2018-04-26T22:22:20.764Z,4.82
2018-04-26T22:24:47.829Z,5.20
2018-04-26T22:27:15.015Z,5.18
2018-04-26T22:29:41.562Z,4.80
2018-04-26T22:32:08.837Z,4.85
2018-04-26T22:34:35.297Z,5.10
2018-04-26T22:37:01.849Z,5.28
2018-04-26T22:39:29.129Z,4.90
2018-04-26T22:41:55.684Z,4.80
2018-04-26T22:44:22.853Z,4.80
2018-04-26T22:46:50.020Z,4.70
2018-04-26T22:49:17.155Z,4.72
2018-04-26T22:51:43.594Z,4.95
2018-04-26T22:54:10.011Z,5.10
2018-04-26T22:56:37.651Z,4.65
2018-04-26T23:00:44.073Z,5.00
2018-04-26T23:03:11.245Z,5.10
2018-04-26T23:05:38.418Z,4.72
2018-04-26T23:08:05.522Z,4.10
2018-04-26T23:10:31.951Z,4.40
2018-04-26T23:12:58.354Z,4.60
2018-04-26T23:15:24.786Z,4.63
2018-04-26T23:17:51.241Z,4.50
2018-04-26T23:20:17.767Z,4.40
2018-04-26T23:22:44.950Z,4.60
2018-04-26T23:25:11.376Z,4.50
2018-04-26T23:27:38.568Z,4.60
2018-04-26T23:30:05.006Z,4.50
2018-04-26T23:32:31.412Z,4.60
2018-04-26T23:34:57.841Z,4.45
2018-04-26T23:37:24.989Z,5.00
2018-04-26T23:39:52.152Z,4.50
2018-04-26T23:42:18.739Z,4.70
2018-04-26T23:44:45.887Z,4.70
2018-04-26T23:47:12.279Z,4.28
2018-04-26T23:49:38.664Z,4.20
2018-04-26T23:52:05.079Z,4.30
2018-04-26T23:54:31.525Z,4.93
2018-04-26T23:56:58.680Z,4.60
2018-04-26T23:59:25.127Z,5.10
